createdAt,value
2023-04-26T00:00:58.204Z,83.25
2023-04-26T00:01:58.187Z,84.01
2023-04-26T00:02:58.432Z,84.42
2023-04-26T00:03:58.343Z,84.94
2023-04-26T00:04:58.495Z,85.71
2023-04-26T00:05:58.171Z,86.02
2023-04-26T00:06:58.277Z,86.65
2023-04-26T00:07:58.144Z,87.86
2023-04-26T00:08:58.105Z,88.51
2023-04-26T00:09:58.106Z,89.83
2023-04-26T00:10:58.084Z,89.62
2023-04-26T00:11:58.068Z,90.45
2023-04-26T00:12:58.054Z,90.45
2023-04-26T00:13:58.044Z,89.83
2023-04-26T00:14:58.027Z,89.06
2023-04-26T00:15:58.062Z,88.75
2023-04-26T00:16:58.009Z,88.02
2023-04-26T00:17:58.098Z,89.27
2023-04-26T00:18:57.997Z,88.95
2023-04-26T00:19:57.976Z,88.23
2023-04-26T00:20:57.960Z,87.60
2023-04-26T00:21:57.961Z,88.54
2023-04-26T00:22:57.973Z,87.65
2023-04-26T00:23:57.943Z,87.86
2023-04-26T00:24:57.906Z,88.06
2023-04-26T00:25:57.915Z,90.35
2023-04-26T00:26:57.903Z,90.45
2023-04-26T00:27:57.873Z,89.72
2023-04-26T00:28:57.879Z,90.03
2023-04-26T00:29:57.843Z,89.93
2023-04-26T00:30:57.935Z,89.72
2023-04-26T00:31:57.877Z,89.41
2023-04-26T00:32:57.868Z,88.37
2023-04-26T00:33:57.792Z,88.10
2023-04-26T00:34:57.799Z,88.20
2023-04-26T00:35:57.769Z,88.94
2023-04-26T00:36:57.757Z,90.08
2023-04-26T00:37:57.747Z,90.28
2023-04-26T00:38:57.764Z,90.43
2023-04-26T00:39:57.722Z,91.47
2023-04-26T00:40:57.730Z,91.78
2023-04-26T00:41:57.694Z,91.68
2023-04-26T00:42:57.678Z,91.47
2023-04-26T00:43:57.679Z,91.63
2023-04-26T00:44:57.833Z,91.22
2023-04-26T00:45:57.681Z,91.01
2023-04-26T00:46:57.639Z,90.12
2023-04-26T00:47:57.643Z,91.78
2023-04-26T00:48:57.605Z,92.30
2023-04-26T00:49:57.592Z,92.92
2023-04-26T00:50:57.582Z,92.61
2023-04-26T00:51:57.568Z,92.40
2023-04-26T00:52:57.556Z,92.03
2023-04-26T00:53:57.542Z,93.13
2023-04-26T00:54:57.579Z,93.96
2023-04-26T00:55:57.612Z,94.07
2023-04-26T00:56:57.520Z,93.45
2023-04-26T00:57:57.497Z,93.92
2023-04-26T00:58:57.484Z,94.03
2023-04-26T00:59:57.468Z,93.92
2023-04-26T01:00:57.492Z,93.71
2023-04-26T01:01:57.494Z,93.40
2023-04-26T01:02:57.553Z,92.77
2023-04-26T01:03:57.593Z,92.09
2023-04-26T01:04:57.417Z,91.88
2023-04-26T01:05:57.393Z,91.88
2023-04-26T01:06:57.373Z,92.09
2023-04-26T01:07:57.363Z,92.09
2023-04-26T01:08:57.351Z,92.03
2023-04-26T01:09:57.338Z,92.55
2023-04-26T01:10:57.353Z,92.65
2023-04-26T01:11:57.313Z,92.55
2023-04-26T01:12:57.303Z,92.44
2023-04-26T01:13:57.290Z,92.24
2023-04-26T01:14:57.275Z,92.07
2023-04-26T01:15:57.267Z,91.97
2023-04-26T01:16:57.334Z,92.70
2023-04-26T01:17:57.343Z,93.32
2023-04-26T01:18:57.223Z,93.80
2023-04-26T01:19:57.211Z,93.90
2023-04-26T01:20:57.218Z,93.28
2023-04-26T01:21:57.182Z,92.55
2023-04-26T01:22:57.173Z,91.61
2023-04-26T01:23:57.158Z,91.30
2023-04-26T01:24:57.157Z,91.45
2023-04-26T01:25:57.133Z,91.82
2023-04-26T01:26:57.150Z,92.13
2023-04-26T01:27:57.107Z,91.45
2023-04-26T01:28:57.095Z,91.35
2023-04-26T01:29:57.083Z,91.45
2023-04-26T01:30:57.107Z,91.76
2023-04-26T01:31:57.058Z,91.39
2023-04-26T01:32:57.087Z,91.60
2023-04-26T01:33:57.031Z,91.70
2023-04-26T01:34:57.015Z,91.64
2023-04-26T01:35:57.004Z,91.53
2023-04-26T01:36:57.000Z,91.57
2023-04-26T01:37:56.982Z,91.89
2023-04-26T01:38:56.970Z,91.78
2023-04-26T01:39:56.953Z,91.47
2023-04-26T01:40:56.943Z,91.99
2023-04-26T01:41:56.930Z,92.10
2023-04-26T01:42:56.947Z,92.10
2023-04-26T01:43:56.905Z,92.30
2023-04-26T01:44:56.897Z,92.51
2023-04-26T01:45:56.912Z,92.62
2023-04-26T01:46:56.865Z,92.82
2023-04-26T01:47:56.909Z,92.72
2023-04-26T01:48:56.842Z,92.03
2023-04-26T01:49:56.826Z,92.87
2023-04-26T01:50:56.813Z,94.18
2023-04-26T01:51:56.807Z,95.33
2023-04-26T01:52:56.793Z,95.64
2023-04-26T01:53:56.784Z,95.91
2023-04-26T01:54:56.764Z,96.01
2023-04-26T01:55:56.755Z,95.91
2023-04-26T01:56:56.738Z,95.49
2023-04-26T01:57:56.727Z,95.39
2023-04-26T01:58:56.735Z,95.08
2023-04-26T01:59:56.697Z,94.55
2023-04-26T02:00:56.691Z,94.45
2023-04-26T02:01:56.738Z,94.45
2023-04-26T02:02:56.728Z,94.65
2023-04-26T02:03:56.647Z,94.34
2023-04-26T02:04:56.697Z,94.14
2023-04-26T02:05:56.625Z,94.34
2023-04-26T02:06:56.621Z,93.82
2023-04-26T02:07:56.601Z,93.82
2023-04-26T02:08:56.583Z,93.62
2023-04-26T02:09:56.578Z,93.51
2023-04-26T02:10:56.594Z,93.31
2023-04-26T02:11:56.552Z,93.51
2023-04-26T02:12:56.541Z,92.99
2023-04-26T02:13:56.529Z,93.03
2023-04-26T02:14:56.535Z,93.93
2023-04-26T02:15:56.512Z,94.03
2023-04-26T02:16:56.488Z,93.45
2023-04-26T02:17:56.485Z,93.03
2023-04-26T02:18:56.462Z,93.13
2023-04-26T02:19:56.454Z,93.24
2023-04-26T02:20:56.438Z,93.35
2023-04-26T02:21:56.434Z,93.45
2023-04-26T02:22:56.415Z,93.45
2023-04-26T02:23:56.411Z,93.45
2023-04-26T02:24:56.388Z,93.13
2023-04-26T02:25:56.432Z,93.03
2023-04-26T02:26:56.378Z,93.45
2023-04-26T02:27:56.356Z,93.76
2023-04-26T02:28:56.337Z,94.18
2023-04-26T02:29:56.328Z,94.34
2023-04-26T02:30:56.359Z,93.93
2023-04-26T02:31:56.347Z,93.41
2023-04-26T02:32:56.305Z,93.20
2023-04-26T02:33:56.280Z,92.88
2023-04-26T02:34:56.263Z,92.93
2023-04-26T02:35:56.252Z,92.99
2023-04-26T02:36:56.240Z,92.82
2023-04-26T02:37:56.222Z,92.93
2023-04-26T02:38:56.212Z,93.13
2023-04-26T02:39:56.207Z,93.24
2023-04-26T02:40:56.186Z,93.56
2023-04-26T02:41:56.180Z,93.45
2023-04-26T02:42:56.162Z,93.66
2023-04-26T02:43:56.148Z,93.56
2023-04-26T02:44:56.142Z,93.56
2023-04-26T02:45:56.120Z,93.56
2023-04-26T02:46:56.190Z,93.66
2023-04-26T02:47:56.195Z,93.76
2023-04-26T02:48:56.086Z,93.66
2023-04-26T02:49:56.073Z,93.66
2023-04-26T02:50:56.057Z,93.45
2023-04-26T02:51:56.045Z,93.13
2023-04-26T02:52:56.033Z,92.93
2023-04-26T02:53:56.019Z,92.51
2023-04-26T02:54:56.049Z,92.30
2023-04-26T02:55:56.000Z,91.68
2023-04-26T02:56:55.980Z,90.74
2023-04-26T02:57:55.967Z,90.32
2023-04-26T02:58:55.956Z,90.64
2023-04-26T02:59:55.942Z,90.53
2023-04-26T03:00:55.951Z,92.30
2023-04-26T03:01:55.972Z,93.56
2023-04-26T03:02:56.116Z,93.87
2023-04-26T03:03:55.978Z,93.91
2023-04-26T03:04:55.899Z,94.07
2023-04-26T03:05:55.866Z,94.28
2023-04-26T03:06:55.856Z,93.70
2023-04-26T03:07:55.840Z,92.87
2023-04-26T03:08:55.829Z,92.18
2023-04-26T03:09:55.826Z,93.32
2023-04-26T03:10:55.805Z,93.54
2023-04-26T03:11:55.790Z,93.70
2023-04-26T03:12:55.777Z,93.39
2023-04-26T03:13:55.764Z,92.76
2023-04-26T03:14:55.771Z,93.85
2023-04-26T03:15:55.741Z,94.47
2023-04-26T03:16:55.882Z,95.00
2023-04-26T03:17:55.771Z,94.89
2023-04-26T03:18:55.728Z,94.68
2023-04-26T03:19:55.694Z,94.89
2023-04-26T03:20:55.680Z,95.31
2023-04-26T03:21:55.668Z,95.47
2023-04-26T03:22:55.655Z,95.68
2023-04-26T03:23:55.647Z,95.68
2023-04-26T03:24:55.632Z,95.58
2023-04-26T03:25:55.626Z,95.16
2023-04-26T03:26:55.617Z,94.53
2023-04-26T03:27:55.593Z,93.81
2023-04-26T03:28:55.585Z,93.54
2023-04-26T03:29:55.567Z,93.43
2023-04-26T03:30:55.560Z,93.01
2023-04-26T03:31:55.669Z,93.32
2023-04-26T03:32:55.561Z,93.95
2023-04-26T03:33:55.517Z,94.68
2023-04-26T03:34:55.534Z,94.58
2023-04-26T03:35:55.492Z,94.00
2023-04-26T03:36:55.496Z,94.16
2023-04-26T03:37:57.949Z,94.31
2023-04-26T03:38:55.453Z,95.10
2023-04-26T03:39:55.441Z,95.41
2023-04-26T03:40:55.434Z,95.31
2023-04-26T03:41:55.425Z,95.31
2023-04-26T03:42:55.432Z,95.20
2023-04-26T03:43:55.409Z,95.00
2023-04-26T03:44:55.384Z,95.10
2023-04-26T03:45:55.425Z,95.31
2023-04-26T03:46:55.358Z,95.00
2023-04-26T03:47:55.513Z,94.51
2023-04-26T03:48:55.369Z,95.20
2023-04-26T03:49:55.319Z,95.52
2023-04-26T03:50:55.331Z,95.72
2023-04-26T03:51:55.307Z,95.31
2023-04-26T03:52:55.282Z,94.73
2023-04-26T03:53:55.272Z,94.26
2023-04-26T03:54:55.256Z,94.37
2023-04-26T03:55:55.245Z,93.89
2023-04-26T03:56:55.245Z,92.95
2023-04-26T03:57:55.230Z,92.95
2023-04-26T03:58:55.204Z,92.43
2023-04-26T03:59:55.186Z,92.54
2023-04-26T04:00:55.178Z,92.54
2023-04-26T04:01:55.167Z,92.43
2023-04-26T04:02:55.246Z,92.01
2023-04-26T04:03:55.444Z,92.22
2023-04-26T04:04:55.379Z,91.85
2023-04-26T04:05:55.115Z,91.80
2023-04-26T04:06:55.128Z,92.32
2023-04-26T04:07:55.090Z,92.32
2023-04-26T04:08:55.351Z,93.37
2023-04-26T04:09:55.064Z,94.31
2023-04-26T04:10:55.055Z,94.83
2023-04-26T04:11:55.059Z,95.14
2023-04-26T04:12:55.028Z,94.73
2023-04-26T04:13:55.065Z,94.51
2023-04-26T04:14:55.003Z,94.83
2023-04-26T04:15:55.062Z,95.25
2023-04-26T04:16:55.070Z,95.14
2023-04-26T04:17:55.010Z,95.35
2023-04-26T04:18:55.273Z,95.56
2023-04-26T04:19:54.950Z,95.08
2023-04-26T04:20:54.926Z,94.56
2023-04-26T04:21:54.921Z,94.67
2023-04-26T04:22:54.922Z,95.19
2023-04-26T04:23:54.895Z,95.29
2023-04-26T04:24:54.878Z,94.87
2023-04-26T04:25:54.862Z,94.87
2023-04-26T04:26:54.860Z,94.87
2023-04-26T04:27:54.843Z,94.77
2023-04-26T04:28:54.975Z,95.29
2023-04-26T04:29:54.812Z,95.29
2023-04-26T04:30:54.833Z,95.29
2023-04-26T04:31:54.785Z,95.14
2023-04-26T04:32:54.820Z,94.83
2023-04-26T04:33:54.761Z,93.93
2023-04-26T04:34:54.745Z,93.62
2023-04-26T04:35:54.738Z,93.62
2023-04-26T04:36:54.732Z,92.99
2023-04-26T04:37:54.711Z,92.99
2023-04-26T04:38:54.993Z,92.99
2023-04-26T04:39:54.689Z,92.64
2023-04-26T04:40:54.671Z,92.16
2023-04-26T04:41:54.666Z,92.43
2023-04-26T04:42:54.649Z,92.43
2023-04-26T04:43:54.646Z,92.54
2023-04-26T04:44:54.631Z,92.22
2023-04-26T04:45:54.614Z,91.74
2023-04-26T04:46:54.652Z,91.11
2023-04-26T04:47:54.629Z,91.74
2023-04-26T04:48:54.837Z,92.37
2023-04-26T04:49:54.565Z,92.47
2023-04-26T04:50:54.551Z,92.68
2023-04-26T04:51:54.536Z,92.64
2023-04-26T04:52:54.523Z,92.12
2023-04-26T04:53:54.514Z,92.85
2023-04-26T04:54:54.522Z,94.00
2023-04-26T04:55:54.485Z,94.83
2023-04-26T04:56:54.473Z,95.25
2023-04-26T04:57:54.459Z,95.14
2023-04-26T04:58:54.592Z,94.73
2023-04-26T04:59:54.439Z,94.51
2023-04-26T05:00:54.430Z,94.16
2023-04-26T05:02:54.713Z,93.43
2023-04-26T05:03:54.776Z,93.32
2023-04-26T05:04:54.437Z,93.28
2023-04-26T05:05:54.362Z,93.18
2023-04-26T05:06:54.355Z,92.93
2023-04-26T05:07:54.338Z,92.51
2023-04-26T05:08:54.329Z,91.57
2023-04-26T05:09:54.314Z,91.99
2023-04-26T05:10:54.325Z,92.41
2023-04-26T05:11:54.288Z,92.62
2023-04-26T05:12:54.293Z,92.57
2023-04-26T05:13:54.569Z,92.22
2023-04-26T05:14:54.250Z,91.70
2023-04-26T05:15:54.309Z,91.66
2023-04-26T05:16:54.273Z,91.41
2023-04-26T05:17:54.216Z,90.91
2023-04-26T05:18:54.202Z,89.14
2023-04-26T05:19:54.185Z,87.86
2023-04-26T05:20:54.181Z,86.95
2023-04-26T05:21:54.170Z,86.38
2023-04-26T05:22:54.153Z,84.79
2023-04-26T05:23:54.350Z,82.85
2023-04-26T05:24:54.128Z,82.09
2023-04-26T05:25:54.105Z,80.29
2023-04-26T05:26:54.121Z,79.01
2023-04-26T05:27:54.081Z,77.25
2023-04-26T05:28:54.097Z,77.32
2023-04-26T05:29:54.057Z,76.59
2023-04-26T05:30:54.047Z,76.91
2023-04-26T05:31:54.092Z,77.49
2023-04-26T05:32:54.092Z,76.94
2023-04-26T05:33:54.269Z,76.77
2023-04-26T05:34:53.999Z,73.80
2023-04-26T05:35:53.982Z,71.91
2023-04-26T05:36:53.972Z,74.25
2023-04-26T05:37:53.957Z,74.98
2023-04-26T05:38:53.945Z,75.63
2023-04-26T05:39:53.929Z,73.77
2023-04-26T05:40:53.922Z,74.15
2023-04-26T05:41:53.910Z,73.70
2023-04-26T05:42:53.914Z,72.09
2023-04-26T05:43:54.130Z,71.33
2023-04-26T05:44:53.862Z,70.03
2023-04-26T05:45:53.914Z,69.56
2023-04-26T05:46:53.836Z,67.62
2023-04-26T05:47:53.893Z,65.42
2023-04-26T05:48:53.808Z,66.20
2023-04-26T05:49:53.828Z,68.23
2023-04-26T05:50:53.785Z,66.62
2023-04-26T05:51:53.776Z,66.07
2023-04-26T05:52:53.756Z,66.61
2023-04-26T05:53:54.032Z,68.46
2023-04-26T05:54:53.730Z,67.65
2023-04-26T05:55:53.725Z,66.87
2023-04-26T05:56:53.706Z,65.13
2023-04-26T05:57:53.735Z,62.95
2023-04-26T05:58:53.710Z,62.02
2023-04-26T05:59:53.676Z,64.59
2023-04-26T06:00:53.650Z,67.06
2023-04-26T06:01:53.788Z,68.16
2023-04-26T06:02:53.707Z,65.33
2023-04-26T06:03:55.958Z,65.08
2023-04-26T06:04:53.841Z,66.21
2023-04-26T06:05:53.660Z,66.53
2023-04-26T06:06:53.574Z,64.01
2023-04-26T06:07:53.560Z,63.74
2023-04-26T06:08:53.549Z,62.43
2023-04-26T06:09:53.540Z,61.56
2023-04-26T06:10:53.521Z,60.24
2023-04-26T06:11:53.511Z,57.84
2023-04-26T06:12:53.503Z,56.11
2023-04-26T06:13:53.724Z,55.07
2023-04-26T06:14:53.552Z,55.73
2023-04-26T06:15:53.461Z,55.60
2023-04-26T06:16:53.481Z,57.03
2023-04-26T06:17:53.542Z,55.09
2023-04-26T06:18:53.420Z,56.70
2023-04-26T06:19:53.418Z,55.88
2023-04-26T06:20:53.392Z,55.15
2023-04-26T06:21:53.381Z,56.24
2023-04-26T06:22:53.375Z,56.37
2023-04-26T06:23:53.673Z,54.79
2023-04-26T06:24:53.343Z,54.13
2023-04-26T06:25:53.335Z,54.56
2023-04-26T06:26:53.311Z,56.57
2023-04-26T06:27:53.299Z,58.91
2023-04-26T06:28:53.287Z,60.08
2023-04-26T06:29:53.279Z,58.60
2023-04-26T06:30:53.330Z,60.09
2023-04-26T06:31:53.264Z,61.42
2023-04-26T06:32:53.298Z,61.80
2023-04-26T06:33:53.545Z,60.63
2023-04-26T06:34:53.214Z,62.57
2023-04-26T06:35:53.212Z,61.21
2023-04-26T06:36:53.184Z,61.17
2023-04-26T06:37:53.172Z,63.58
2023-04-26T06:38:53.160Z,64.64
2023-04-26T06:39:53.153Z,63.90
2023-04-26T06:40:53.131Z,60.65
2023-04-26T06:41:53.126Z,59.61
2023-04-26T06:42:53.105Z,57.16
2023-04-26T06:43:53.404Z,55.56
2023-04-26T06:44:53.080Z,54.74
2023-04-26T06:45:53.168Z,56.14
2023-04-26T06:46:53.266Z,58.49
2023-04-26T06:47:53.105Z,56.70
2023-04-26T06:48:53.029Z,55.68
2023-04-26T06:49:53.016Z,54.89
2023-04-26T06:50:53.002Z,54.87
2023-04-26T06:51:53.014Z,53.49
2023-04-26T06:52:52.978Z,52.40
2023-04-26T06:53:53.205Z,53.69
2023-04-26T06:54:56.897Z,51.61
2023-04-26T06:55:52.937Z,50.90
2023-04-26T06:56:52.928Z,51.61
2023-04-26T06:57:52.927Z,53.67
2023-04-26T06:58:52.898Z,53.85
2023-04-26T06:59:52.888Z,52.53
2023-04-26T07:00:52.870Z,51.46
2023-04-26T07:01:52.939Z,51.81
2023-04-26T07:02:53.128Z,53.08
2023-04-26T07:03:53.266Z,54.79
2023-04-26T07:04:53.012Z,55.25
2023-04-26T07:05:52.807Z,53.61
2023-04-26T07:06:52.815Z,53.06
2023-04-26T07:07:52.783Z,52.52
2023-04-26T07:08:53.454Z,52.55
2023-04-26T07:09:52.766Z,50.09
2023-04-26T07:10:52.752Z,47.61
2023-04-26T07:11:52.739Z,46.95
2023-04-26T07:12:52.721Z,48.60
2023-04-26T07:13:52.982Z,47.82
2023-04-26T07:14:52.694Z,46.13
2023-04-26T07:15:52.733Z,44.47
2023-04-26T07:16:52.672Z,43.90
2023-04-26T07:17:52.724Z,46.49
2023-04-26T07:18:52.667Z,49.65
2023-04-26T07:19:54.017Z,50.06
2023-04-26T07:20:52.628Z,48.00
2023-04-26T07:21:52.604Z,44.65
2023-04-26T07:22:52.595Z,47.93
2023-04-26T07:23:53.014Z,50.24
2023-04-26T07:24:52.570Z,50.44
2023-04-26T07:25:52.556Z,50.18
2023-04-26T07:26:52.545Z,50.92
2023-04-26T07:27:52.532Z,49.06
2023-04-26T07:28:52.517Z,46.45
2023-04-26T07:29:52.511Z,44.78
2023-04-26T07:30:52.491Z,43.50
2023-04-26T07:31:52.553Z,42.63
2023-04-26T07:32:52.510Z,41.12
2023-04-26T07:33:52.819Z,40.88
2023-04-26T07:34:52.704Z,40.58
2023-04-26T07:35:52.430Z,39.99
2023-04-26T07:36:52.421Z,40.77
2023-04-26T07:37:52.404Z,41.80
2023-04-26T07:38:52.393Z,42.73
2023-04-26T07:39:52.382Z,42.08
2023-04-26T07:40:52.369Z,40.94
2023-04-26T07:41:52.365Z,40.03
2023-04-26T07:42:52.345Z,40.74
2023-04-26T07:43:52.525Z,40.31
2023-04-26T07:44:52.323Z,39.67
2023-04-26T07:45:52.313Z,38.45
2023-04-26T07:46:52.290Z,39.39
2023-04-26T07:47:52.346Z,38.63
2023-04-26T07:48:52.266Z,37.89
2023-04-26T07:49:52.253Z,37.03
2023-04-26T07:50:52.315Z,35.41
2023-04-26T07:51:52.240Z,36.43
2023-04-26T07:52:52.218Z,36.46
2023-04-26T07:53:52.447Z,37.30
2023-04-26T07:54:52.187Z,39.51
2023-04-26T07:55:52.184Z,40.82
2023-04-26T07:56:52.175Z,43.34
2023-04-26T07:57:52.155Z,44.72
2023-04-26T07:58:52.136Z,45.78
2023-04-26T07:59:52.122Z,46.83
2023-04-26T08:00:52.120Z,46.79
2023-04-26T08:01:52.136Z,46.14
2023-04-26T08:02:52.411Z,44.98
2023-04-26T08:03:52.350Z,44.36
2023-04-26T08:04:52.220Z,43.70
2023-04-26T08:05:52.323Z,43.10
2023-04-26T08:06:52.084Z,43.70
2023-04-26T08:07:52.039Z,43.85
2023-04-26T08:08:52.008Z,44.27
2023-04-26T08:09:51.992Z,44.23
2023-04-26T08:10:51.981Z,42.79
2023-04-26T08:11:51.982Z,43.12
2023-04-26T08:12:51.954Z,43.56
2023-04-26T08:13:52.174Z,44.50
2023-04-26T08:14:51.928Z,45.55
2023-04-26T08:15:51.920Z,45.08
2023-04-26T08:16:52.109Z,43.38
2023-04-26T08:17:51.905Z,41.20
2023-04-26T08:18:51.894Z,41.38
2023-04-26T08:19:51.866Z,39.93
2023-04-26T08:20:51.849Z,40.35
2023-04-26T08:21:51.842Z,40.05
2023-04-26T08:22:51.849Z,40.35
2023-04-26T08:23:52.043Z,39.91
2023-04-26T08:24:51.798Z,39.31
2023-04-26T08:25:51.787Z,40.03
2023-04-26T08:26:51.777Z,40.77
2023-04-26T08:27:51.757Z,40.59
2023-04-26T08:28:51.750Z,40.89
2023-04-26T08:29:51.739Z,40.91
2023-04-26T08:30:51.755Z,41.00
2023-04-26T08:31:51.709Z,41.32
2023-04-26T08:32:51.716Z,41.87
2023-04-26T08:33:51.982Z,42.59
2023-04-26T08:34:51.672Z,41.72
2023-04-26T08:35:51.672Z,40.86
2023-04-26T08:36:51.658Z,38.89
2023-04-26T08:37:51.651Z,38.58
2023-04-26T08:38:51.654Z,37.92
2023-04-26T08:39:51.614Z,37.30
2023-04-26T08:40:51.590Z,36.60
2023-04-26T08:41:51.581Z,36.19
2023-04-26T08:42:51.581Z,36.62
2023-04-26T08:43:51.888Z,36.93
2023-04-26T08:44:51.543Z,37.35
2023-04-26T08:45:51.562Z,38.29
2023-04-26T08:46:51.524Z,39.34
2023-04-26T08:47:51.632Z,39.63
2023-04-26T08:48:51.494Z,39.12
2023-04-26T08:49:51.480Z,39.11
2023-04-26T08:50:51.469Z,38.07
2023-04-26T08:51:51.454Z,37.86
2023-04-26T08:52:51.501Z,38.20
2023-04-26T08:53:51.685Z,37.78
2023-04-26T08:54:51.569Z,37.66
2023-04-26T08:55:51.432Z,36.84
2023-04-26T08:56:51.391Z,36.25
2023-04-26T08:57:51.380Z,37.10
2023-04-26T08:58:51.367Z,38.98
2023-04-26T08:59:51.346Z,39.28
2023-04-26T09:00:51.337Z,38.78
2023-04-26T09:01:51.377Z,39.28
2023-04-26T09:02:51.549Z,38.59
2023-04-26T09:03:51.780Z,38.91
2023-04-26T09:04:51.456Z,41.18
2023-04-26T09:05:51.265Z,41.58
2023-04-26T09:06:51.258Z,41.38
2023-04-26T09:07:51.290Z,41.09
2023-04-26T09:08:51.234Z,42.41
2023-04-26T09:09:51.217Z,43.26
2023-04-26T09:10:51.228Z,43.59
2023-04-26T09:11:51.198Z,43.99
2023-04-26T09:12:51.181Z,44.50
2023-04-26T09:13:51.467Z,44.40
2023-04-26T09:14:51.156Z,44.40
2023-04-26T09:15:51.221Z,44.60
2023-04-26T09:16:51.130Z,44.68
2023-04-26T09:17:51.178Z,44.48
2023-04-26T09:18:51.226Z,43.62
2023-04-26T09:19:51.094Z,44.07
2023-04-26T09:20:51.074Z,43.95
2023-04-26T09:21:51.062Z,43.22
2023-04-26T09:22:51.055Z,44.15
2023-04-26T09:23:51.043Z,43.83
2023-04-26T09:24:51.028Z,43.07
2023-04-26T09:25:51.011Z,42.49
2023-04-26T09:26:51.030Z,42.77
2023-04-26T09:27:50.988Z,42.69
2023-04-26T09:28:51.309Z,42.69
2023-04-26T09:29:50.966Z,42.79
2023-04-26T09:30:50.968Z,42.53
2023-04-26T09:31:50.984Z,43.01
2023-04-26T09:32:50.967Z,45.54
2023-04-26T09:33:50.903Z,46.05
2023-04-26T09:34:50.896Z,46.86
2023-04-26T09:35:50.876Z,45.42
2023-04-26T09:36:50.865Z,44.76
2023-04-26T09:37:58.424Z,44.34
2023-04-26T09:38:50.989Z,44.36
2023-04-26T09:39:50.827Z,45.48
2023-04-26T09:40:50.856Z,43.97
2023-04-26T09:41:50.799Z,43.85
2023-04-26T09:42:50.833Z,43.02
2023-04-26T09:43:50.773Z,43.26
2023-04-26T09:44:50.761Z,44.60
2023-04-26T09:45:51.094Z,44.64
2023-04-26T09:46:50.783Z,45.13
2023-04-26T09:47:50.750Z,45.48
2023-04-26T09:48:50.964Z,45.64
2023-04-26T09:49:50.704Z,43.85
2023-04-26T09:50:50.688Z,42.79
2023-04-26T09:51:50.675Z,41.62
2023-04-26T09:52:50.659Z,41.40
2023-04-26T09:53:50.651Z,40.58
2023-04-26T09:54:50.652Z,40.93
2023-04-26T09:55:50.620Z,41.03
2023-04-26T09:56:50.605Z,40.91
2023-04-26T10:00:23.723Z,41.68
2023-04-26T10:01:23.232Z,42.47
2023-04-26T10:02:23.308Z,42.81
2023-04-26T10:03:23.403Z,41.98
2023-04-26T10:04:23.203Z,42.18
2023-04-26T10:05:23.135Z,41.03
2023-04-26T10:06:23.121Z,41.13
2023-04-26T10:07:23.113Z,40.49
2023-04-26T10:08:23.091Z,40.02
2023-04-26T10:09:23.082Z,40.35
2023-04-26T10:10:23.068Z,41.19
2023-04-26T10:11:23.058Z,40.97
2023-04-26T10:12:23.059Z,40.36
2023-04-26T10:13:23.042Z,40.65
2023-04-26T10:14:23.017Z,39.84
2023-04-26T10:15:23.001Z,38.62
2023-04-26T10:16:23.078Z,38.83
2023-04-26T10:17:23.072Z,39.71
2023-04-26T10:18:22.968Z,42.49
2023-04-26T10:19:22.957Z,42.55
2023-04-26T10:20:22.944Z,40.45
2023-04-26T10:21:22.923Z,39.22
2023-04-26T10:22:22.924Z,37.96
2023-04-26T10:23:22.902Z,36.38
2023-04-26T10:24:22.893Z,37.15
2023-04-26T10:25:22.875Z,36.91
2023-04-26T10:26:22.864Z,36.18
2023-04-26T10:27:22.853Z,37.45
2023-04-26T10:28:22.842Z,38.76
2023-04-26T10:29:22.832Z,38.24
2023-04-26T10:30:22.815Z,36.03
2023-04-26T10:31:22.843Z,37.32
2023-04-26T10:32:22.897Z,37.86
2023-04-26T10:33:22.820Z,39.11
2023-04-26T10:34:22.764Z,39.81
2023-04-26T10:35:22.767Z,39.67
2023-04-26T10:36:22.738Z,37.97
2023-04-26T10:37:22.735Z,37.65
2023-04-26T10:38:22.722Z,36.60
2023-04-26T10:39:22.703Z,36.71
2023-04-26T10:40:22.692Z,36.07
2023-04-26T10:41:22.677Z,35.43
2023-04-26T10:42:24.293Z,34.77
2023-04-26T10:43:24.324Z,34.67
2023-04-26T10:44:22.644Z,34.02
2023-04-26T10:45:22.627Z,33.08
2023-04-26T10:46:22.711Z,33.15
2023-04-26T10:47:22.723Z,32.46
2023-04-26T10:48:22.660Z,34.52
2023-04-26T10:49:24.226Z,34.15
2023-04-26T10:50:22.567Z,34.55
2023-04-26T10:51:22.558Z,34.75
2023-04-26T10:52:22.537Z,34.13
2023-04-26T10:53:22.527Z,33.90
2023-04-26T10:54:22.514Z,35.21
2023-04-26T10:55:24.339Z,35.74
2023-04-26T10:56:22.489Z,36.50
2023-04-26T10:57:22.486Z,38.11
2023-04-26T10:58:22.462Z,38.15
2023-04-26T10:59:39.748Z,38.58
2023-04-26T11:00:24.440Z,37.65
2023-04-26T11:01:22.456Z,37.73
2023-04-26T11:02:22.480Z,37.18
2023-04-26T11:03:22.564Z,36.40
2023-04-26T11:04:22.629Z,34.85
2023-04-26T11:05:24.861Z,34.11
2023-04-26T11:06:22.363Z,34.42
2023-04-26T11:07:22.351Z,33.67
2023-04-26T11:08:22.337Z,32.83
2023-04-26T11:09:22.326Z,32.63
2023-04-26T11:10:22.315Z,32.55
2023-04-26T11:11:22.301Z,32.34
2023-04-26T11:12:22.304Z,32.98
2023-04-26T11:13:22.282Z,32.95
2023-04-26T11:14:22.261Z,31.81
2023-04-26T11:15:22.252Z,31.68
2023-04-26T11:16:22.276Z,31.14
2023-04-26T11:17:22.309Z,30.45
2023-04-26T11:18:22.210Z,30.23
2023-04-26T11:19:22.207Z,29.93
2023-04-26T11:20:22.226Z,30.23
2023-04-26T11:21:22.179Z,30.48
2023-04-26T11:22:22.169Z,32.56
2023-04-26T11:23:22.154Z,32.89
2023-04-26T11:24:22.140Z,34.35
2023-04-26T11:25:22.127Z,34.16
2023-04-26T11:26:22.108Z,35.93
2023-04-26T11:27:22.103Z,36.99
2023-04-26T11:28:22.091Z,37.09
2023-04-26T11:29:22.088Z,37.71
2023-04-26T11:30:22.064Z,38.02
2023-04-26T11:31:22.096Z,36.99
2023-04-26T11:32:22.043Z,35.93
2023-04-26T11:33:22.031Z,34.97
2023-04-26T11:34:22.013Z,33.80
2023-04-26T11:35:22.006Z,33.30
2023-04-26T11:36:22.020Z,32.26
2023-04-26T11:37:21.979Z,32.21
2023-04-26T11:38:21.968Z,31.94
2023-04-26T11:39:21.950Z,32.39
2023-04-26T11:40:21.937Z,33.58
2023-04-26T11:41:21.926Z,36.28
2023-04-26T11:42:21.911Z,36.67
2023-04-26T11:43:21.964Z,36.54
2023-04-26T11:44:21.896Z,37.70
2023-04-26T11:45:21.876Z,38.66
2023-04-26T11:46:21.917Z,36.07
2023-04-26T11:47:21.852Z,35.21
2023-04-26T11:48:21.900Z,33.93
2023-04-26T11:49:21.825Z,32.55
2023-04-26T11:50:21.825Z,31.76
2023-04-26T11:51:21.799Z,32.47
2023-04-26T11:52:21.805Z,32.00
2023-04-26T11:53:21.782Z,32.29
2023-04-26T11:54:21.761Z,32.56
2023-04-26T11:55:21.750Z,33.95
2023-04-26T11:56:21.739Z,33.01
2023-04-26T11:57:21.724Z,32.22
2023-04-26T11:58:21.723Z,31.92
2023-04-26T11:59:21.699Z,32.40
2023-04-26T12:00:21.684Z,32.64
2023-04-26T12:01:21.679Z,32.70
2023-04-26T12:02:21.765Z,32.08
2023-04-26T12:03:21.917Z,31.77
2023-04-26T12:04:21.900Z,32.81
2023-04-26T12:05:21.661Z,32.99
2023-04-26T12:06:21.622Z,31.74
2023-04-26T12:07:21.596Z,31.04
2023-04-26T12:08:21.625Z,30.65
2023-04-26T12:09:21.578Z,30.23
2023-04-26T12:10:21.557Z,29.69
2023-04-26T12:11:21.547Z,28.77
2023-04-26T12:12:21.531Z,29.68
2023-04-26T12:13:21.518Z,29.35
2023-04-26T12:14:21.506Z,28.64
2023-04-26T12:15:21.493Z,28.44
2023-04-26T12:16:26.720Z,28.35
2023-04-26T12:17:21.578Z,28.76
2023-04-26T12:18:21.514Z,29.35
2023-04-26T12:19:21.441Z,28.93
2023-04-26T12:20:21.425Z,28.37
2023-04-26T12:21:21.416Z,29.19
2023-04-26T12:22:21.409Z,29.77
2023-04-26T12:23:21.392Z,29.96
2023-04-26T12:24:21.417Z,29.90
2023-04-26T12:25:21.366Z,30.55
2023-04-26T12:26:21.351Z,32.12
2023-04-26T12:27:21.338Z,33.39
2023-04-26T12:28:21.342Z,34.41
2023-04-26T12:29:21.315Z,33.86
2023-04-26T12:30:21.298Z,32.70
2023-04-26T12:31:21.334Z,32.49
2023-04-26T12:32:22.659Z,33.11
2023-04-26T12:33:21.338Z,33.34
2023-04-26T12:34:21.258Z,34.40
2023-04-26T12:35:21.234Z,34.15
2023-04-26T12:36:21.243Z,33.31
2023-04-26T12:37:21.211Z,32.29
2023-04-26T12:38:21.202Z,32.16
2023-04-26T12:39:21.179Z,31.47
2023-04-26T12:40:21.352Z,31.34
2023-04-26T12:41:21.156Z,30.49
2023-04-26T12:42:21.147Z,29.55
2023-04-26T12:43:21.130Z,29.62
2023-04-26T12:44:22.512Z,28.07
2023-04-26T12:45:21.104Z,27.98
2023-04-26T12:46:21.137Z,28.47
2023-04-26T12:47:21.094Z,28.50
2023-04-26T12:48:21.097Z,28.92
2023-04-26T12:49:21.079Z,28.08
2023-04-26T12:50:21.039Z,27.64
2023-04-26T12:51:21.067Z,27.49
2023-04-26T12:52:21.016Z,28.59
2023-04-26T12:53:21.019Z,27.65
2023-04-26T12:54:20.990Z,26.92
2023-04-26T12:55:20.981Z,26.53
2023-04-26T12:56:21.029Z,26.85